Sedgefield, United Kingdom
Current Conditions -  °F | °C
As of 11:50 AM on Thursday 23 Oct 2014 (Local Time) from EGNV Reporting Station
Scattered Clouds Scattered Clouds  
Wind Chill: 57°   Ceiling: Unl
Heat Index: 57°   Visibility: 6mi
Dew Point: 50°   Wind: 17mph
Humidity: 77%   Direction: 200°SSW
Pressure: 29.91"   Gusts: NA
Location:  54.65°N, 1.45°W
Report Text: EGNV 231050Z 20015KT 9999 FEW021 SCT026 14/10 Q1013
Loading
Personal Weather Stations






























Interactive Weather Map
Tropical Storm Tracking
New forecast layout! Learn more

10-Day Weather Forecast

Advertisements
Track Severe Weather on mobile